Time;durP1;ratioP1;P1;durP2;ratioP2;P2;SDS_P1;SDS_P2;PMS_P1;PMS_P2;Temp;Humidity;BMP_temperature;BMP_pressure;BME280_temperature;BME280_humidity;BME280_pressure;Samples;Min_cycle;Max_cycle;Signal;HPM_P1;HPM_P2
2022/06/27 00:01:19;;;;;;;9.70;3.27;;;-40.00;99.90;;;;;;5119873;28;20253;-75
2022/06/27 00:03:45;;;;;;;9.63;3.50;;;-40.00;99.90;;;;;;5120133;28;20173;-77
2022/06/27 00:06:11;;;;;;;6.57;3.30;;;-40.00;99.90;;;;;;5120645;28;20170;-76
2022/06/27 00:08:37;;;;;;;4.97;3.67;;;-40.00;99.90;;;;;;5120252;28;20289;-72
2022/06/27 00:11:04;;;;;;;4.80;3.40;;;-40.00;99.90;;;;;;5120199;28;20248;-75
2022/06/27 00:13:30;;;;;;;7.60;3.80;;;-40.00;99.90;;;;;;5119818;28;20162;-76
2022/06/27 00:15:55;;;;;;;3.83;3.50;;;-40.00;99.90;;;;;;5119773;28;20158;-75
2022/06/27 00:18:21;;;;;;;4.00;3.23;;;-40.00;99.90;;;;;;5119925;28;20170;-74
2022/06/27 00:20:47;;;;;;;7.00;3.80;;;-40.00;99.90;;;;;;5120021;28;20480;-78
2022/06/27 00:23:13;;;;;;;3.33;2.93;;;-40.00;99.90;;;;;;5119886;27;20628;-74
2022/06/27 00:25:38;;;;;;;4.10;3.57;;;-40.00;99.90;;;;;;5119834;28;20170;-75
2022/06/27 00:28:04;;;;;;;6.93;3.63;;;-40.00;99.90;;;;;;5119621;28;20276;-76
2022/06/27 00:30:30;;;;;;;4.83;3.47;;;-40.00;99.90;;;;;;5119514;28;20172;-74
2022/06/27 00:32:56;;;;;;;7.53;4.00;;;-40.00;99.90;;;;;;5119759;28;20192;-75
2022/06/27 00:35:21;;;;;;;4.97;3.43;;;-40.00;99.90;;;;;;5119579;28;20162;-73
2022/06/27 00:37:47;;;;;;;5.07;3.80;;;-40.00;99.90;;;;;;5119346;28;20217;-75
2022/06/27 00:40:14;;;;;;;15.83;3.60;;;-40.00;99.90;;;;;;5119719;28;20301;-75
2022/06/27 00:42:40;;;;;;;4.03;2.90;;;-40.00;99.90;;;;;;5118320;28;20173;-73
2022/06/27 00:45:06;;;;;;;3.73;3.43;;;-40.00;99.90;;;;;;5119362;27;20471;-74
2022/06/27 00:47:32;;;;;;;5.47;3.60;;;-40.00;99.90;;;;;;5119141;27;20198;-71
2022/06/27 00:49:58;;;;;;;9.07;3.97;;;-40.00;99.90;;;;;;5119129;28;20158;-73
2022/06/27 00:52:24;;;;;;;3.50;3.23;;;-40.00;99.90;;;;;;5119177;28;20185;-70
2022/06/27 00:54:50;;;;;;;3.33;3.03;;;-40.00;99.90;;;;;;5119043;28;20253;-67
2022/06/27 00:57:16;;;;;;;4.40;4.03;;;-40.00;99.90;;;;;;5118162;28;20210;-72
2022/06/27 00:59:42;;;;;;;4.17;3.50;;;-40.00;99.90;;;;;;5118847;28;20558;-68
2022/06/27 01:02:08;;;;;;;6.70;2.80;;;-40.00;99.90;;;;;;5118077;28;20227;-71
2022/06/27 01:04:36;;;;;;;3.40;3.10;;;-40.00;99.90;;;;;;5118728;28;20174;-74
2022/06/27 01:07:02;;;;;;;3.90;3.60;;;-40.00;99.90;;;;;;5118971;28;20202;-67
2022/06/27 01:09:28;;;;;;;10.43;4.10;;;-40.00;99.90;;;;;;5118728;28;20168;-70
2022/06/27 01:11:54;;;;;;;5.37;4.43;;;-40.00;99.90;;;;;;5119025;28;20577;-72
2022/06/27 01:14:20;;;;;;;4.37;3.20;;;-40.00;99.90;;;;;;5118548;28;20162;-71
2022/06/27 01:16:46;;;;;;;4.80;2.97;;;-40.00;99.90;;;;;;5118865;28;20241;-70
2022/06/27 01:19:16;;;;;;;4.97;3.27;;;-40.00;99.90;;;;;;5118711;28;20166;-75
2022/06/27 01:21:55;;;;;;;14.07;4.00;;;-40.00;99.90;;;;;;5118764;28;20166;-76
2022/06/27 01:24:24;;;;;;;3.63;3.23;;;-40.00;99.90;;;;;;5118550;28;20172;-69
2022/06/27 01:26:50;;;;;;;5.87;3.83;;;-40.00;99.90;;;;;;5118651;27;20166;-76
2022/06/27 01:29:17;;;;;;;3.73;3.27;;;-40.00;99.90;;;;;;5117262;27;20170;-70
2022/06/27 01:31:44;;;;;;;6.50;3.07;;;-40.00;99.90;;;;;;5117500;28;20872;-77
2022/06/27 01:34:10;;;;;;;4.53;3.40;;;-40.00;99.90;;;;;;5118454;28;20163;-78
2022/06/27 01:36:42;;;;;;;23.13;4.63;;;-40.00;99.90;;;;;;5118102;28;20166;-73
2022/06/27 01:39:11;;;;;;;12.57;3.83;;;-40.00;99.90;;;;;;5118371;28;20174;-74
2022/06/27 01:41:41;;;;;;;5.40;3.60;;;-40.00;99.90;;;;;;5117566;28;20477;-70
2022/06/27 01:44:09;;;;;;;4.33;3.50;;;-40.00;99.90;;;;;;5117935;28;20190;-70
2022/06/27 01:46:38;;;;;;;12.43;3.63;;;-40.00;99.90;;;;;;5118273;28;20166;-74
2022/06/27 01:49:04;;;;;;;4.50;2.73;;;-40.00;99.90;;;;;;5116976;28;20202;-75
2022/06/27 01:51:30;;;;;;;3.83;2.67;;;-40.00;99.90;;;;;;5117961;28;20190;-72
2022/06/27 01:53:56;;;;;;;3.97;3.67;;;-40.00;99.90;;;;;;5118040;28;20162;-70
2022/06/27 01:56:22;;;;;;;4.93;3.47;;;-40.00;99.90;;;;;;5118151;28;20173;-70
2022/06/27 01:58:48;;;;;;;4.40;3.30;;;-40.00;99.90;;;;;;5117537;28;20253;-73
2022/06/27 02:01:13;;;;;;;5.07;3.40;;;-40.00;99.90;;;;;;5117887;28;20186;-71
2022/06/27 02:03:39;;;;;;;4.77;3.47;;;-40.00;99.90;;;;;;5117617;28;20201;-71
2022/06/27 02:06:05;;;;;;;3.83;3.50;;;-40.00;99.90;;;;;;5116582;28;20177;-71
2022/06/27 02:08:32;;;;;;;3.00;2.77;;;-40.00;99.90;;;;;;5117515;28;20332;-72
2022/06/27 02:10:58;;;;;;;9.20;3.63;;;-40.00;99.90;;;;;;5117696;28;20245;-72
2022/06/27 02:13:24;;;;;;;7.07;3.57;;;-40.00;99.90;;;;;;5116383;28;20169;-70
2022/06/27 02:16:08;;;;;;;11.23;4.57;;;-40.00;99.90;;;;;;5117624;28;20207;-70
2022/06/27 02:18:34;;;;;;;4.43;3.80;;;-40.00;99.90;;;;;;5117555;28;20174;-71
2022/06/27 02:21:00;;;;;;;10.57;4.07;;;-40.00;99.90;;;;;;5117581;28;20173;-70
2022/06/27 02:23:26;;;;;;;3.63;3.37;;;-40.00;99.90;;;;;;5117556;28;20162;-80
2022/06/27 02:25:53;;;;;;;8.83;4.07;;;-40.00;99.90;;;;;;5117299;28;20191;-75
2022/06/27 02:28:22;;;;;;;3.57;2.93;;;-40.00;99.90;;;;;;5116216;28;20197;-78
2022/06/27 02:30:48;;;;;;;7.63;3.63;;;-40.00;99.90;;;;;;5117326;28;20154;-76
2022/06/27 02:33:14;;;;;;;6.63;3.37;;;-40.00;99.90;;;;;;5116574;28;20193;-79
2022/06/27 02:35:43;;;;;;;4.07;3.77;;;-40.00;99.90;;;;;;5116961;28;20577;-76
2022/06/27 02:38:11;;;;;;;4.23;3.27;;;-40.00;99.90;;;;;;5117104;28;20182;-78
2022/06/27 02:40:39;;;;;;;5.77;3.27;;;-40.00;99.90;;;;;;5116053;28;20523;-77
2022/06/27 02:43:08;;;;;;;9.80;3.37;;;-40.00;99.90;;;;;;5117201;28;20696;-74
2022/06/27 02:45:36;;;;;;;6.70;3.53;;;-40.00;99.90;;;;;;5117035;28;20181;-79
2022/06/27 02:48:02;;;;;;;4.07;3.77;;;-40.00;99.90;;;;;;5117057;28;20217;-80
2022/06/27 02:50:32;;;;;;;3.93;3.27;;;-40.00;99.90;;;;;;5116838;28;20186;-71
2022/06/27 02:53:05;;;;;;;6.33;3.20;;;-40.00;99.90;;;;;;5115890;28;20803;-79
2022/06/27 02:55:41;;;;;;;6.33;3.40;;;-40.00;99.90;;;;;;5116723;28;20162;-77
2022/06/27 02:58:16;;;;;;;4.23;2.87;;;-40.00;99.90;;;;;;5116980;28;20166;-78
2022/06/27 03:00:43;;;;;;;3.00;2.70;;;-40.00;99.90;;;;;;5116778;28;20166;-73
2022/06/27 03:03:12;;;;;;;3.50;3.20;;;-40.00;99.90;;;;;;5116766;28;20205;-70
2022/06/27 03:05:59;;;;;;;15.50;4.07;;;-40.00;99.90;;;;;;5116584;28;20577;-69
2022/06/27 03:08:25;;;;;;;3.23;2.83;;;-40.00;99.90;;;;;;5116686;28;20206;-69
2022/06/27 03:10:51;;;;;;;10.77;4.83;;;-40.00;99.90;;;;;;5116341;28;20162;-75
2022/06/27 03:13:17;;;;;;;3.33;3.13;;;-40.00;99.90;;;;;;5116645;28;20220;-69
2022/06/27 03:15:43;;;;;;;9.37;3.23;;;-40.00;99.90;;;;;;5116452;28;20161;-71
2022/06/27 03:18:13;;;;;;;5.77;3.87;;;-40.00;99.90;;;;;;5116447;28;20166;-71
2022/06/27 03:20:39;;;;;;;3.80;3.50;;;-40.00;99.90;;;;;;5115209;28;20200;-70
2022/06/27 03:23:05;;;;;;;5.90;4.00;;;-40.00;99.90;;;;;;5116419;28;20261;-69
2022/06/27 03:25:31;;;;;;;5.47;3.47;;;-40.00;99.90;;;;;;5116170;28;20222;-71
2022/06/27 03:27:57;;;;;;;11.40;3.37;;;-40.00;99.90;;;;;;5115274;28;20198;-69
2022/06/27 03:30:22;;;;;;;8.77;3.87;;;-40.00;99.90;;;;;;5116404;28;20219;-71
2022/06/27 03:32:48;;;;;;;10.63;4.97;;;-40.00;99.90;;;;;;5116204;28;20254;-71
2022/06/27 03:35:14;;;;;;;3.27;3.07;;;-40.00;99.90;;;;;;5116139;28;20197;-69
2022/06/27 03:37:39;;;;;;;6.00;3.80;;;-40.00;99.90;;;;;;5116041;28;20185;-72
2022/06/27 03:40:12;;;;;;;5.43;4.03;;;-40.00;99.90;;;;;;5116130;28;20574;-75
2022/06/27 03:42:47;;;;;;;5.67;3.47;;;-40.00;99.90;;;;;;5116169;28;20166;-70
2022/06/27 03:45:18;;;;;;;5.60;3.70;;;-40.00;99.90;;;;;;5116594;28;20161;-70
2022/06/27 03:48:01;;;;;;;3.60;3.00;;;-40.00;99.90;;;;;;5114783;28;20229;-73
2022/06/27 03:50:27;;;;;;;3.43;3.00;;;-40.00;99.90;;;;;;5115160;28;20197;-70
2022/06/27 03:52:54;;;;;;;3.57;3.13;;;-40.00;99.90;;;;;;5116053;28;20166;-73
2022/06/27 03:55:22;;;;;;;3.67;3.37;;;-40.00;99.90;;;;;;5115019;28;20178;-69
2022/06/27 03:57:54;;;;;;;5.00;3.67;;;-40.00;99.90;;;;;;5115856;28;20170;-76
2022/06/27 04:00:25;;;;;;;3.30;3.10;;;-40.00;99.90;;;;;;5116296;28;20173;-72
2022/06/27 04:02:52;;;;;;;3.50;3.30;;;-40.00;99.90;;;;;;5115851;28;20215;-69
2022/06/27 04:05:18;;;;;;;4.13;3.70;;;-40.00;99.90;;;;;;5115957;28;20185;-69
2022/06/27 04:07:45;;;;;;;7.70;4.77;;;-40.00;99.90;;;;;;5115574;28;20229;-75
2022/06/27 04:10:12;;;;;;;8.00;3.93;;;-40.00;99.90;;;;;;5116117;28;20250;-74
2022/06/27 04:12:40;;;;;;;10.73;4.03;;;-40.00;99.90;;;;;;5115853;28;20162;-69
2022/06/27 04:15:07;;;;;;;5.63;3.67;;;-40.00;99.90;;;;;;5116060;28;20744;-76
2022/06/27 04:17:33;;;;;;;4.23;2.97;;;-40.00;99.90;;;;;;5116016;28;20274;-77
2022/06/27 04:19:59;;;;;;;4.60;4.10;;;-40.00;99.90;;;;;;5115965;28;20269;-75
2022/06/27 04:22:25;;;;;;;3.83;3.50;;;-40.00;99.90;;;;;;5115605;28;20569;-74
2022/06/27 04:24:50;;;;;;;5.20;3.90;;;-40.00;99.90;;;;;;5115717;28;20565;-73
2022/06/27 04:27:19;;;;;;;9.67;3.90;;;-40.00;99.90;;;;;;5115599;28;20190;-70
2022/06/27 04:29:48;;;;;;;4.97;4.50;;;-40.00;99.90;;;;;;5116378;28;20159;-77
2022/06/27 04:32:15;;;;;;;7.07;3.93;;;-40.00;99.90;;;;;;5119711;28;20211;-73
2022/06/27 04:34:41;;;;;;;5.47;4.90;;;-40.00;99.90;;;;;;5119582;28;20241;-71
2022/06/27 04:37:07;;;;;;;7.80;4.47;;;-40.00;99.90;;;;;;5119166;28;20553;-74
2022/06/27 04:39:33;;;;;;;28.73;4.60;;;-40.00;99.90;;;;;;5119521;28;20168;-73
2022/06/27 04:41:59;;;;;;;5.17;4.30;;;-40.00;99.90;;;;;;5119463;28;20162;-74
2022/06/27 04:44:25;;;;;;;4.30;3.63;;;-40.00;99.90;;;;;;5119535;27;20631;-76
2022/06/27 04:46:52;;;;;;;4.90;3.90;;;-40.00;99.90;;;;;;5119475;27;20165;-73
2022/06/27 04:49:19;;;;;;;4.77;3.23;;;-40.00;99.90;;;;;;5119445;28;20162;-71
2022/06/27 04:51:49;;;;;;;3.33;3.13;;;-40.00;99.90;;;;;;5119025;28;20190;-72
2022/06/27 04:54:16;;;;;;;4.30;4.00;;;-40.00;99.90;;;;;;5119180;28;20581;-74
2022/06/27 04:56:44;;;;;;;3.97;3.67;;;-40.00;99.90;;;;;;5119356;28;20178;-76
2022/06/27 04:59:10;;;;;;;4.43;4.03;;;-40.00;99.90;;;;;;5119167;27;20162;-73
2022/06/27 05:01:37;;;;;;;5.17;3.07;;;-40.00;99.90;;;;;;5119088;28;20191;-71
2022/06/27 05:04:03;;;;;;;5.60;3.93;;;-40.00;99.90;;;;;;5118909;28;20245;-74
2022/06/27 05:06:30;;;;;;;8.20;3.80;;;-40.00;99.90;;;;;;5119155;28;20257;-73
2022/06/27 05:08:56;;;;;;;7.33;3.50;;;-40.00;99.90;;;;;;5118904;28;20615;-77
2022/06/27 05:11:23;;;;;;;12.53;4.97;;;-40.00;99.90;;;;;;5119069;28;20166;-76
2022/06/27 05:13:49;;;;;;;8.33;5.57;;;-40.00;99.90;;;;;;5118881;28;20194;-76
2022/06/27 05:16:18;;;;;;;3.93;3.50;;;-40.00;99.90;;;;;;5118986;28;20223;-77
2022/06/27 05:18:44;;;;;;;7.20;4.10;;;-40.00;99.90;;;;;;5118717;28;20243;-76
2022/06/27 05:21:10;;;;;;;4.13;3.73;;;-40.00;99.90;;;;;;5118740;28;20573;-76
2022/06/27 05:23:39;;;;;;;5.57;4.07;;;-40.00;99.90;;;;;;5118626;28;20600;-74
2022/06/27 05:26:05;;;;;;;5.37;3.63;;;-40.00;99.90;;;;;;5117547;28;20217;-71
2022/06/27 05:28:31;;;;;;;6.73;2.93;;;-40.00;99.90;;;;;;5118614;28;20249;-76
2022/06/27 05:30:57;;;;;;;6.63;3.83;;;-40.00;99.90;;;;;;5118679;28;20171;-73
2022/06/27 05:33:24;;;;;;;12.37;4.83;;;-40.00;99.90;;;;;;5118621;28;20177;-74
2022/06/27 05:35:51;;;;;;;3.77;3.43;;;-40.00;99.90;;;;;;5117074;28;20213;-76
2022/06/27 05:38:18;;;;;;;7.83;3.60;;;-40.00;99.90;;;;;;5118284;27;20273;-73
2022/06/27 05:40:45;;;;;;;4.43;4.03;;;-40.00;99.90;;;;;;5118532;28;20197;-74
2022/06/27 05:43:15;;;;;;;3.80;3.50;;;-40.00;99.90;;;;;;5116732;28;20173;-77
2022/06/27 05:45:41;;;;;;;5.90;3.73;;;-40.00;99.90;;;;;;5118289;28;20566;-70
2022/06/27 05:48:07;;;;;;;3.13;2.93;;;-40.00;99.90;;;;;;5118194;27;20593;-76
2022/06/27 05:50:33;;;;;;;5.37;4.10;;;-40.00;99.90;;;;;;5116809;28;20506;-74
2022/06/27 05:53:01;;;;;;;11.50;3.47;;;-40.00;99.90;;;;;;5118125;28;20503;-72
2022/06/27 05:55:30;;;;;;;4.33;3.93;;;-40.00;99.90;;;;;;5118112;27;20185;-79
2022/06/27 05:57:57;;;;;;;4.73;3.67;;;-40.00;99.90;;;;;;5118161;28;20573;-75
2022/06/27 06:00:23;;;;;;;5.07;4.00;;;-40.00;99.90;;;;;;5117939;28;20169;-70
2022/06/27 06:02:49;;;;;;;5.67;3.33;;;-40.00;99.90;;;;;;5116894;28;20174;-71
2022/06/27 06:05:15;;;;;;;3.57;3.13;;;-40.00;99.90;;;;;;5117547;28;20589;-71
2022/06/27 06:07:45;;;;;;;5.37;4.37;;;-40.00;99.90;;;;;;5117944;28;20202;-70
2022/06/27 06:10:12;;;;;;;4.43;3.40;;;-40.00;99.90;;;;;;5117779;28;20479;-70
2022/06/27 06:12:38;;;;;;;6.60;4.17;;;-40.00;99.90;;;;;;5116813;28;20230;-68
2022/06/27 06:15:04;;;;;;;3.83;3.50;;;-40.00;99.90;;;;;;5117466;28;20174;-67
2022/06/27 06:17:34;;;;;;;3.10;2.80;;;-40.00;99.90;;;;;;5116565;28;20227;-67
2022/06/27 06:20:00;;;;;;;4.57;3.87;;;-40.00;99.90;;;;;;5117220;27;20188;-70
2022/06/27 06:22:27;;;;;;;4.03;2.90;;;-40.00;99.90;;;;;;5117549;28;20166;-67
2022/06/27 06:24:54;;;;;;;4.63;3.50;;;-40.00;99.90;;;;;;5117385;28;20196;-68
2022/06/27 06:27:21;;;;;;;7.10;3.90;;;-40.00;99.90;;;;;;5117408;28;20190;-70
2022/06/27 06:29:47;;;;;;;5.43;3.57;;;-40.00;99.90;;;;;;5117329;28;20569;-77
2022/06/27 06:32:13;;;;;;;6.97;3.17;;;-40.00;99.90;;;;;;5117372;28;20172;-73
2022/06/27 06:34:40;;;;;;;6.83;4.13;;;-40.00;99.90;;;;;;5116776;28;20322;-73
2022/06/27 06:37:07;;;;;;;6.20;4.23;;;-40.00;99.90;;;;;;5116636;27;20194;-77
2022/06/27 06:39:33;;;;;;;5.80;4.43;;;-40.00;99.90;;;;;;5136540;27;20169;-70
2022/06/27 06:41:59;;;;;;;4.60;3.87;;;-40.00;99.90;;;;;;5131868;27;20165;-75
2022/06/27 06:44:25;;;;;;;3.43;3.23;;;-40.00;99.90;;;;;;5130675;27;20245;-71
2022/06/27 06:46:54;;;;;;;4.90;3.63;;;-40.00;99.90;;;;;;5136327;27;20577;-69
2022/06/27 06:49:20;;;;;;;11.43;4.83;;;-40.00;99.90;;;;;;5134584;27;20600;-70
2022/06/27 06:51:46;;;;;;;14.60;4.83;;;-40.00;99.90;;;;;;5136182;27;20186;-74
2022/06/27 06:54:20;;;;;;;8.97;3.63;;;-40.00;99.90;;;;;;5129738;27;20472;-69
2022/06/27 06:56:49;;;;;;;19.63;5.90;;;-40.00;99.90;;;;;;5134324;27;20182;-68
2022/06/27 06:59:17;;;;;;;16.10;4.90;;;-40.00;99.90;;;;;;5137338;27;20175;-79
2022/06/27 07:01:44;;;;;;;12.27;4.20;;;-40.00;99.90;;;;;;5136533;27;20592;-75
2022/06/27 07:04:11;;;;;;;8.23;3.77;;;-40.00;99.90;;;;;;5130399;27;20184;-77
2022/06/27 07:06:41;;;;;;;8.13;3.83;;;-40.00;99.90;;;;;;5116344;28;20182;-69
2022/06/27 07:09:07;;;;;;;4.67;4.23;;;-40.00;99.90;;;;;;5114934;28;20212;-70
2022/06/27 07:11:35;;;;;;;7.03;4.10;;;-40.00;99.90;;;;;;5126166;27;20489;-71
2022/06/27 07:14:01;;;;;;;7.57;4.53;;;-40.00;99.90;;;;;;5134480;27;20201;-83
2022/06/27 07:16:27;;;;;;;8.30;3.90;;;-40.00;99.90;;;;;;5135913;27;20572;-77
2022/06/27 07:18:54;;;;;;;12.17;4.20;;;-40.00;99.90;;;;;;5136776;27;20165;-70
2022/06/27 07:21:21;;;;;;;8.63;3.30;;;-40.00;99.90;;;;;;5136839;27;20256;-74
2022/06/27 07:23:48;;;;;;;6.80;3.87;;;-40.00;99.90;;;;;;5136344;27;20208;-69
2022/06/27 07:26:18;;;;;;;11.00;3.90;;;-40.00;99.90;;;;;;5136602;27;20203;-75
2022/06/27 07:28:45;;;;;;;4.27;3.30;;;-40.00;99.90;;;;;;5136708;27;20260;-79
2022/06/27 07:31:12;;;;;;;4.93;3.27;;;-40.00;99.90;;;;;;5136399;27;20193;-84
2022/06/27 07:33:39;;;;;;;8.90;4.17;;;-40.00;99.90;;;;;;5136816;27;20189;-84
2022/06/27 07:36:08;;;;;;;5.50;3.87;;;-40.00;99.90;;;;;;5135048;27;20226;-78
2022/06/27 07:38:38;;;;;;;7.07;4.63;;;-40.00;99.90;;;;;;5136192;27;20209;-80
2022/06/27 07:41:07;;;;;;;4.27;3.00;;;-40.00;99.90;;;;;;5136120;27;20169;-73
2022/06/27 07:43:34;;;;;;;6.43;3.23;;;-40.00;99.90;;;;;;5134387;27;20221;-72
2022/06/27 07:46:03;;;;;;;4.60;3.90;;;-40.00;99.90;;;;;;5114509;28;20166;-76
2022/06/27 07:48:30;;;;;;;7.30;3.73;;;-40.00;99.90;;;;;;5116153;28;20189;-82
2022/06/27 07:50:56;;;;;;;12.70;3.47;;;-40.00;99.90;;;;;;5121483;28;20231;-72
2022/06/27 07:53:24;;;;;;;5.30;2.93;;;-40.00;99.90;;;;;;5125983;28;20181;-75
2022/06/27 07:56:07;;;;;;;14.57;3.97;;;-40.00;99.90;;;;;;5129607;28;20174;-69
2022/06/27 07:58:38;;;;;;;6.10;3.63;;;-40.00;99.90;;;;;;5136681;27;20189;-70
2022/06/27 08:01:14;;;;;;;5.67;2.90;;;-40.00;99.90;;;;;;5135923;27;20174;-68
2022/06/27 08:03:59;;;;;;;4.43;3.33;;;-40.00;99.90;;;;;;5136236;27;20172;-68
2022/06/27 08:06:27;;;;;;;4.33;3.63;;;-40.00;99.90;;;;;;5139051;27;20212;-69
2022/06/27 08:08:57;;;;;;;8.60;3.23;;;-40.00;99.90;;;;;;5129635;27;20219;-69
2022/06/27 08:11:32;;;;;;;3.33;3.03;;;-40.00;99.90;;;;;;5119098;28;20177;-73
2022/06/27 08:14:03;;;;;;;6.50;3.20;;;-40.00;99.90;;;;;;5119463;28;20241;-69
2022/06/27 08:16:30;;;;;;;4.13;2.90;;;-40.00;99.90;;;;;;5117715;28;20180;-74
2022/06/27 08:18:56;;;;;;;2.77;2.27;;;-40.00;99.90;;;;;;5139426;27;20209;-70
2022/06/27 08:21:25;;;;;;;7.87;2.90;;;-40.00;99.90;;;;;;5138933;27;20307;-72
2022/06/27 08:23:53;;;;;;;4.87;2.73;;;-40.00;99.90;;;;;;5140062;27;20162;-73
2022/06/27 08:26:20;;;;;;;5.27;2.60;;;-40.00;99.90;;;;;;5135325;27;20704;-75
2022/06/27 08:28:47;;;;;;;8.40;3.97;;;-40.00;99.90;;;;;;5117794;28;20206;-74
2022/06/27 08:31:14;;;;;;;8.03;3.53;;;-40.00;99.90;;;;;;5119702;28;20526;-85
2022/06/27 08:33:43;;;;;;;9.90;3.37;;;-40.00;99.90;;;;;;5119069;28;20484;-81
2022/06/27 08:36:09;;;;;;;2.90;2.53;;;-40.00;99.90;;;;;;5118112;28;20265;-80
2022/06/27 08:38:56;;;;;;;3.93;3.10;;;-40.00;99.90;;;;;;5119110;28;20213;-76
2022/06/27 08:41:23;;;;;;;6.43;3.27;;;-40.00;99.90;;;;;;5118879;28;20185;-70
2022/06/27 08:43:55;;;;;;;8.30;3.27;;;-40.00;99.90;;;;;;5118172;28;20260;-73
2022/06/27 08:46:22;;;;;;;4.17;3.03;;;-40.00;99.90;;;;;;5118045;28;20182;-74
2022/06/27 08:48:50;;;;;;;9.27;4.47;;;-40.00;99.90;;;;;;5119042;28;20186;-68
2022/06/27 08:51:16;;;;;;;3.13;2.80;;;-40.00;99.90;;;;;;5120554;27;20182;-80
2022/06/27 08:53:43;;;;;;;3.87;3.47;;;-40.00;99.90;;;;;;5139192;27;20662;-69
2022/06/27 08:56:12;;;;;;;5.83;2.83;;;-40.00;99.90;;;;;;5139168;27;20181;-72
2022/06/27 08:58:40;;;;;;;6.83;3.73;;;-40.00;99.90;;;;;;5138032;27;20208;-73
2022/06/27 09:01:06;;;;;;;4.97;2.97;;;-40.00;99.90;;;;;;5139469;27;20622;-76
2022/06/27 09:03:34;;;;;;;9.57;3.87;;;-40.00;99.90;;;;;;5139286;27;20565;-79
2022/06/27 09:06:04;;;;;;;11.27;3.50;;;-40.00;99.90;;;;;;5124005;27;20182;-69
2022/06/27 09:08:36;;;;;;;3.23;2.73;;;-40.00;99.90;;;;;;5118743;28;20209;-70
2022/06/27 09:11:03;;;;;;;5.90;2.67;;;-40.00;99.90;;;;;;5118730;28;20170;-71
2022/06/27 09:13:30;;;;;;;8.43;3.97;;;-40.00;99.90;;;;;;5117816;28;20178;-69
2022/06/27 09:16:02;;;;;;;5.37;2.87;;;-40.00;99.90;;;;;;5117303;28;20227;-71
2022/06/27 09:18:33;;;;;;;9.60;3.30;;;-40.00;99.90;;;;;;5118046;28;20231;-70
2022/06/27 09:21:01;;;;;;;10.50;4.07;;;-40.00;99.90;;;;;;5118793;28;20174;-68
2022/06/27 09:23:49;;;;;;;4.37;3.00;;;-40.00;99.90;;;;;;5117411;28;20594;-67
2022/06/27 09:26:22;;;;;;;5.70;3.07;;;-40.00;99.90;;;;;;5118505;28;20569;-68
2022/06/27 09:28:53;;;;;;;6.67;3.73;;;-40.00;99.90;;;;;;5118124;28;20189;-76
2022/06/27 09:31:31;;;;;;;9.47;5.10;;;-40.00;99.90;;;;;;5118554;28;20186;-70
2022/06/27 09:34:19;;;;;;;6.17;3.73;;;-40.00;99.90;;;;;;5118101;28;20168;-70
2022/06/27 09:36:51;;;;;;;8.90;4.43;;;-40.00;99.90;;;;;;5129125;27;20196;-72
2022/06/27 09:39:34;;;;;;;9.00;3.53;;;-40.00;99.90;;;;;;5134648;27;20190;-71
2022/06/27 09:42:08;;;;;;;9.77;3.57;;;-40.00;99.90;;;;;;5116604;28;20186;-80
2022/06/27 09:44:38;;;;;;;8.47;4.63;;;-40.00;99.90;;;;;;5131492;27;20178;-68
2022/06/27 09:47:26;;;;;;;11.23;4.20;;;-40.00;99.90;;;;;;5117944;28;20585;-68
2022/06/27 09:49:56;;;;;;;6.13;4.37;;;-40.00;99.90;;;;;;5117831;28;20272;-67
2022/06/27 09:52:26;;;;;;;7.30;4.33;;;-40.00;99.90;;;;;;5116883;28;20182;-74
2022/06/27 09:54:54;;;;;;;9.77;3.40;;;-40.00;99.90;;;;;;5126959;27;20595;-76
2022/06/27 09:57:21;;;;;;;7.53;4.37;;;-40.00;99.90;;;;;;5123060;27;20261;-79
2022/06/27 09:59:50;;;;;;;18.83;10.17;;;-40.00;99.90;;;;;;5138219;27;20181;-68
2022/06/27 10:02:19;;;;;;;7.40;4.57;;;-40.00;99.90;;;;;;5136168;27;20181;-71
2022/06/27 10:04:51;;;;;;;11.30;4.33;;;-40.00;99.90;;;;;;5132197;27;20656;-75
2022/06/27 10:07:18;;;;;;;9.50;4.60;;;-40.00;99.90;;;;;;5138236;27;20185;-69
2022/06/27 10:09:48;;;;;;;4.73;3.43;;;-40.00;99.90;;;;;;5137770;27;20624;-76
2022/06/27 10:12:31;;;;;;;4.97;4.10;;;-40.00;99.90;;;;;;5136953;27;20208;-68
2022/06/27 10:15:09;;;;;;;16.43;5.33;;;-40.00;99.90;;;;;;5137749;27;20606;-71
2022/06/27 10:17:51;;;;;;;30.40;7.23;;;-40.00;99.90;;;;;;5137789;27;20169;-69
2022/06/27 10:20:20;;;;;;;30.70;5.60;;;-40.00;99.90;;;;;;5137946;27;20169;-67
2022/06/27 10:23:04;;;;;;;17.43;6.43;;;-40.00;99.90;;;;;;5138063;27;20161;-80
2022/06/27 10:25:30;;;;;;;13.47;6.50;;;-40.00;99.90;;;;;;5138144;27;20197;-70
2022/06/27 10:28:08;;;;;;;13.97;7.10;;;-40.00;99.90;;;;;;5139181;27;20216;-73
2022/06/27 10:30:38;;;;;;;9.97;6.40;;;-40.00;99.90;;;;;;5138388;27;20527;-74
2022/06/27 10:33:25;;;;;;;8.37;5.87;;;-40.00;99.90;;;;;;5117987;28;20170;-73
2022/06/27 10:35:57;;;;;;;8.43;5.50;;;-40.00;99.90;;;;;;5118399;28;20683;-76
2022/06/27 10:38:28;;;;;;;8.40;5.77;;;-40.00;99.90;;;;;;5117180;28;20190;-72
2022/06/27 10:40:55;;;;;;;9.07;5.37;;;-40.00;99.90;;;;;;5118060;28;20159;-67
2022/06/27 10:43:37;;;;;;;7.77;6.70;;;-40.00;99.90;;;;;;5118222;28;20173;-72
2022/06/27 10:46:13;;;;;;;17.20;7.63;;;-40.00;99.90;;;;;;5117260;28;20473;-73
2022/06/27 10:49:16;;;;;;;10.40;6.33;;;-40.00;99.90;;;;;;5117043;28;20521;-66
2022/06/27 10:51:42;;;;;;;14.33;9.47;;;-40.00;99.90;;;;;;5115761;27;20189;-66
2022/06/27 10:54:12;;;;;;;7.60;6.87;;;-40.00;99.90;;;;;;5135615;27;20169;-67
2022/06/27 10:56:42;;;;;;;12.87;7.27;;;-40.00;99.90;;;;;;5136409;27;20170;-67
2022/06/27 10:59:14;;;;;;;14.60;6.50;;;-40.00;99.90;;;;;;5137661;27;20173;-70
2022/06/27 11:01:58;;;;;;;6.90;5.40;;;-40.00;99.90;;;;;;5136908;27;20166;-70
2022/06/27 11:04:25;;;;;;;8.07;5.60;;;-40.00;99.90;;;;;;5135294;27;20206;-69
2022/06/27 11:07:05;;;;;;;5.87;5.27;;;-40.00;99.90;;;;;;5137700;27;20174;-69
2022/06/27 11:09:35;;;;;;;9.67;7.13;;;-40.00;99.90;;;;;;5135975;27;20201;-68
2022/06/27 11:12:01;;;;;;;8.77;6.70;;;-40.00;99.90;;;;;;5133113;27;20169;-70
2022/06/27 11:14:27;;;;;;;7.73;6.47;;;-40.00;99.90;;;;;;5135932;27;20526;-70
2022/06/27 11:16:53;;;;;;;10.30;6.20;;;-40.00;99.90;;;;;;5136627;27;20244;-75
2022/06/27 11:22:22;;;;;;;13.30;6.10;;;-40.00;99.90;;;;;;5116432;28;20193;-69
2022/06/27 11:24:49;;;;;;;9.33;6.13;;;-40.00;99.90;;;;;;5126826;27;20664;-70
2022/06/27 11:27:17;;;;;;;6.97;4.77;;;-40.00;99.90;;;;;;5125231;27;20508;-81
2022/06/27 11:32:34;;;;;;;9.97;5.60;;;-40.00;99.90;;;;;;5136010;27;20172;-76
2022/06/27 11:35:00;;;;;;;8.10;6.33;;;-40.00;99.90;;;;;;5135294;27;20253;-83
2022/06/27 11:37:29;;;;;;;7.03;5.40;;;-40.00;99.90;;;;;;5136319;27;20185;-77
2022/06/27 11:40:05;;;;;;;9.03;5.47;;;-40.00;99.90;;;;;;5136264;27;20674;-86
2022/06/27 11:42:34;;;;;;;6.60;5.47;;;-40.00;99.90;;;;;;5136852;27;20176;-84
2022/06/27 11:45:07;;;;;;;6.47;5.17;;;-40.00;99.90;;;;;;5137089;27;20173;-81
2022/06/27 11:47:38;;;;;;;16.70;6.27;;;-40.00;99.90;;;;;;5136983;27;20280;-76
2022/06/27 11:50:06;;;;;;;8.60;6.33;;;-40.00;99.90;;;;;;5136889;27;20188;-74
2022/06/27 11:52:52;;;;;;;11.93;6.87;;;-40.00;99.90;;;;;;5133026;27;20174;-79
2022/06/27 11:55:21;;;;;;;7.93;7.30;;;-40.00;99.90;;;;;;5116239;28;20162;-80
2022/06/27 11:57:54;;;;;;;10.40;7.33;;;-40.00;99.90;;;;;;5130346;28;20220;-76
2022/06/27 12:00:24;;;;;;;8.90;6.97;;;-40.00;99.90;;;;;;5116172;28;20174;-73
2022/06/27 12:02:52;;;;;;;10.63;7.87;;;-40.00;99.90;;;;;;5115947;28;20162;-73
2022/06/27 12:05:20;;;;;;;11.20;8.70;;;-40.00;99.90;;;;;;5115504;28;20184;-73
2022/06/27 12:07:52;;;;;;;11.87;9.17;;;-40.00;99.90;;;;;;5115402;28;20200;-71
2022/06/27 12:10:34;;;;;;;6.33;5.70;;;-40.00;99.90;;;;;;5124794;28;20231;-73
2022/06/27 12:13:00;;;;;;;5.57;5.00;;;-40.00;99.90;;;;;;5115826;28;20190;-70
2022/06/27 12:15:26;;;;;;;6.80;6.10;;;-40.00;99.90;;;;;;5115304;28;20198;-69
2022/06/27 12:17:57;;;;;;;11.77;5.27;;;-40.00;99.90;;;;;;5115845;28;20172;-68
2022/06/27 12:20:24;;;;;;;6.63;5.00;;;-40.00;99.90;;;;;;5115898;28;20166;-69
2022/06/27 12:22:50;;;;;;;4.73;3.60;;;-40.00;99.90;;;;;;5132254;28;20173;-69
2022/06/27 12:25:17;;;;;;;3.83;3.53;;;-40.00;99.90;;;;;;5133487;28;20488;-70
2022/06/27 12:27:43;;;;;;;3.80;3.43;;;-40.00;99.90;;;;;;5134630;28;20504;-68
2022/06/27 12:30:10;;;;;;;9.33;3.10;;;-40.00;99.90;;;;;;5125778;27;20261;-71
2022/06/27 12:32:36;;;;;;;2.73;2.17;;;-40.00;99.90;;;;;;5115392;28;20234;-72
2022/06/27 12:35:02;;;;;;;5.37;2.57;;;-40.00;99.90;;;;;;5115445;28;20589;-69
2022/06/27 12:37:28;;;;;;;3.27;2.40;;;-40.00;99.90;;;;;;5125483;28;20193;-72
2022/06/27 12:39:54;;;;;;;4.20;2.90;;;-40.00;99.90;;;;;;5118057;27;20177;-78
2022/06/27 12:42:20;;;;;;;5.00;3.00;;;-40.00;99.90;;;;;;5115081;28;20178;-79
2022/06/27 12:44:45;;;;;;;3.83;2.10;;;-40.00;99.90;;;;;;5125819;28;20173;-73
2022/06/27 12:47:11;;;;;;;4.40;2.27;;;-40.00;99.90;;;;;;5132239;27;20204;-74
2022/06/27 12:49:37;;;;;;;2.40;2.20;;;-40.00;99.90;;;;;;5114156;28;20562;-81